• Join FlightAware (Why Join?)
  • Login
  • US Flag 
01:24PM EDT


 

Airport Tracker/Info


-or-


 

Live Flight TrackerFlight Track Log ✈ LYM1725 ✈ 02-May-2013 ✈ KDEN - KRIW

Flight Track Log - Related Links

Times and Time Zones

All times are in EDT time to prevent confusion due to time zone crossing. See the LYM1725 flight status page for this flight to view local times or setup timezone preferences in your user account.

Time Position Orientation Groundspeed Altitude Reporting Facility
EDT Latitude Longitude Course Direction KTS MPH feet Rate Location/Type
08:36AM 39.8833 -104.6667 349° North 152 175 7,600  Level Denver TRACON
08:37AM 39.9167 -104.6833 339° North 163 188 10,100 1,740 Climbing Denver TRACON
08:38AM 39.9667 -104.7167 333° Northwest 214 246 11,100 1,620 Climbing Denver TRACON
08:39AM 39.9942 -104.7175 359° North 207 238 12,400 2,100 Climbing Denver Center
08:40AM 40.0497 -104.7194 358° North 203 234 14,100 1,560 Climbing Denver Center
08:41AM 40.0936 -104.7158 North 206 237 15,600 1,560 Climbing Denver Center
08:42AM 40.1530 -104.8049 349° North  Level FlightAware Approximate
08:42AM 40.1642 -104.7133 North 210 242 17,300  Level Denver Center
08:43AM 40.2261 -104.7258 351° North 212 244 17,900 960 Climbing Denver Center
08:44AM 40.2608 -104.8006 301° West 206 237 19,500 1,080 Climbing Denver Center
08:45AM 40.3006 -104.8703 307° West 229 264 20,100 180 Climbing Denver Center
08:46AM 40.3658 -104.9028 339° North 255 293 19,900 -60 Descending Denver Center
08:47AM 40.4364 -104.9258 346° North 262 302 20,000  Climbing Denver Center
08:48AM 40.5069 -104.9511 345° North 262 302 20,000  Level Denver Center
08:49AM 40.5819 -104.9875 340° North 267 307 20,000  Level Denver Center
08:50AM 40.6519 -105.0169 342° North 261 300 20,000  Level Denver Center
08:51AM 40.7050 -105.0408 341° North 262 302 20,000  Level Denver Center
08:52AM 40.7833 -105.0736 342° North 255 293 20,000  Level Denver Center
08:53AM 40.8356 -105.1375 317° Northwest 254 292 20,000  Level Denver Center
08:54AM 40.8950 -105.2211 313° West 264 304 20,000 -60 Level Denver Center
08:55AM 40.9528 -105.2811 322° Northwest 264 304 19,900  Descending Denver Center
08:56AM 41.0061 -105.3472 317° Northwest 263 303 20,100  Climbing Denver Center
08:57AM 41.0492 -105.4100 312° West 260 299 20,000 -120 Descending Denver Center
08:58AM 41.1039 -105.4892 313° West 261 300 19,900 -60 Descending Denver Center
08:59AM 41.1522 -105.5542 315° West 259 298 19,900  Level Denver Center
09:00AM 41.2033 -105.6369 309° West 260 299 20,000  Climbing Denver Center
09:01AM 41.2514 -105.7031 314° West 259 298 20,000  Level Denver Center
09:02AM 41.3014 -105.7653 317° Northwest 258 297 20,000  Level Denver Center
09:03AM 41.3550 -105.8458 312° West 259 298 20,000 -120 Level Denver Center
09:04AM 41.3967 -105.9206 307° West 260 299 19,800 -60 Descending Denver Center
09:05AM 41.4381 -105.9919 308° West 258 297 19,900  Climbing Denver Center
09:07AM 41.4947 -106.0636 317° Northwest 252 290 19,900  Level Denver Center
09:08AM 41.5417 -106.1278 314° West 251 289 20,000  Climbing Denver Center
09:09AM 41.5950 -106.2272 306° West 255 293 20,000  Level Denver Center
09:10AM 41.6353 -106.3003 306° West 254 292 20,000 -60 Level Denver Center
09:11AM 41.6808 -106.3664 313° West 253 291 19,900  Descending Denver Center
09:12AM 41.7353 -106.4358 316° Northwest 243 280 20,000 -60 Climbing Denver Center
09:13AM 41.7831 -106.4992 315° West 249 287 19,800  Descending Denver Center
09:14AM 41.8292 -106.5664 313° West 250 288 20,100 60 Climbing Denver Center
09:15AM 41.8803 -106.6392 313° West 245 282 20,000 -60 Descending Denver Center
09:16AM 41.9256 -106.7006 315° West 239 275 20,000  Level Denver Center
09:17AM 41.9786 -106.7728 315° West 243 280 20,000 -60 Level Denver Center
09:18AM 42.0217 -106.8383 311° West 244 281 19,900 -60 Descending Denver Center
09:19AM 42.0669 -106.9008 314° West 244 281 19,900  Level Denver Center
09:20AM 42.1158 -106.9769 311° West 242 278 19,900 -60 Level Denver Center
09:21AM 42.1589 -107.0414 312° West 242 278 19,800  Descending Denver Center
09:22AM 42.2000 -107.1083 310° West 243 280 20,000  Climbing Denver Center
09:23AM 42.2483 -107.1789 313° West 232 267 19,900 -60 Descending Denver Center
09:24AM 42.2892 -107.2472 309° West 242 278 19,900 -60 Level Denver Center
09:25AM 42.3314 -107.3086 313° West 235 270 19,800 -540 Descending Denver Center
09:26AM 42.3831 -107.3886 311° West 254 292 18,900 -900 Descending Denver Center
09:26AM 42.3967 -107.4128 307° West 252 290 18,700  Descending Salt Lake Center
09:27AM 42.4406 -107.4853 309° West 258 297 18,900 120 Climbing Salt Lake Center
09:28AM 42.4842 -107.5517 312° West 254 292 19,000 -240 Climbing Salt Lake Center
09:29AM 42.5311 -107.6217 312° West 235 270 18,500 -540 Descending Salt Lake Center
09:30AM 42.5789 -107.6889 314° West 246 283 18,000 -720 Descending Salt Lake Center
09:31AM 42.6261 -107.7697 308° West 263 303 17,100 -1,080 Descending Salt Lake Center
09:32AM 42.6872 -107.8594 313° West 282 325 15,800 -1,140 Descending Salt Lake Center
09:33AM 42.7414 -107.9333 315° West 288 331 14,800 -1,140 Descending Salt Lake Center
09:34AM 42.8044 -108.0139 317° Northwest 281 323 13,600 -1,200 Descending Salt Lake Center
09:35AM 42.8578 -108.0819 317° Northwest 278 320 12,400 -1,200 Descending Salt Lake Center